Time;durP1;ratioP1;P1;durP2;ratioP2;P2;SDS_P1;SDS_P2;PMS_P1;PMS_P2;Temp;Humidity;BMP_temperature;BMP_pressure;BME280_temperature;BME280_humidity;BME280_pressure;Samples;Min_cycle;Max_cycle;Signal;HPM_P1;HPM_P2
2022/09/30 00:01:40;;;;;;;6.68;2.10;;;;;;;;;;5000850;28;20120;-89
2022/09/30 00:04:07;;;;;;;4.65;2.00;;;;;;;;;;4997872;28;20026;-88
2022/09/30 00:06:36;;;;;;;6.68;2.83;;;;;;;;;;4996721;28;20111;-87
2022/09/30 00:09:03;;;;;;;4.43;1.75;;;;;;;;;;5001734;28;20104;-87
2022/09/30 00:11:31;;;;;;;5.85;2.20;;;;;;;;;;5006381;28;20038;-88
2022/09/30 00:13:57;;;;;;;4.75;2.40;;;;;;;;;;5004453;28;20277;-88
2022/09/30 00:16:24;;;;;;;5.75;2.42;;;;;;;;;;5034646;28;20034;-87
2022/09/30 00:18:51;;;;;;;4.68;2.30;;;;;;;;;;5033487;28;20052;-88
2022/09/30 00:21:18;;;;;;;4.60;2.25;;;;;;;;;;4995695;28;20037;-88
2022/09/30 00:23:44;;;;;;;4.40;2.65;;;;;;;;;;5021101;28;20025;-87
2022/09/30 00:26:12;;;;;;;5.13;2.25;;;;;;;;;;5002760;28;20400;-88
2022/09/30 00:28:39;;;;;;;4.60;2.72;;;;;;;;;;5036525;28;20032;-88
2022/09/30 00:31:06;;;;;;;2.85;2.00;;;;;;;;;;5004471;28;20025;-88
2022/09/30 00:33:33;;;;;;;3.75;2.83;;;;;;;;;;5028946;28;20029;-88
2022/09/30 00:36:00;;;;;;;4.68;2.28;;;;;;;;;;5004951;28;20102;-87
2022/09/30 00:38:26;;;;;;;5.18;2.20;;;;;;;;;;5027656;28;20380;-87
2022/09/30 00:40:53;;;;;;;5.15;2.55;;;;;;;;;;5036810;28;20026;-88
2022/09/30 00:43:40;;;;;;;7.80;2.80;;;;;;;;;;5005245;28;20052;-88
2022/09/30 00:46:12;;;;;;;6.10;2.08;;;;;;;;;;5031668;28;20128;-87
2022/09/30 00:48:38;;;;;;;3.78;2.03;;;;;;;;;;5003957;28;20030;-88
2022/09/30 00:51:06;;;;;;;9.98;2.30;;;;;;;;;;5002587;28;20046;-88
2022/09/30 00:53:32;;;;;;;6.88;2.40;;;;;;;;;;5003156;28;20053;-88
2022/09/30 00:56:00;;;;;;;7.72;2.30;;;;;;;;;;5004532;28;20038;-88
2022/09/30 00:58:26;;;;;;;6.47;2.63;;;;;;;;;;5036557;28;20026;-88
2022/09/30 01:00:52;;;;;;;6.40;2.40;;;;;;;;;;5035747;28;20515;-88
2022/09/30 01:03:21;;;;;;;3.63;2.22;;;;;;;;;;5038863;28;20026;-88
2022/09/30 01:05:48;;;;;;;7.10;2.20;;;;;;;;;;5003591;28;20037;-89
2022/09/30 01:08:17;;;;;;;3.25;2.25;;;;;;;;;;5035775;28;20477;-89
2022/09/30 01:10:43;;;;;;;6.30;2.35;;;;;;;;;;5036282;28;20088;-90
2022/09/30 01:13:09;;;;;;;7.68;2.35;;;;;;;;;;5001256;28;20073;-89
2022/09/30 01:16:05;;;;;;;5.20;2.42;;;;;;;;;;5033621;28;20041;-88
2022/09/30 01:18:34;;;;;;;4.38;2.20;;;;;;;;;;4999521;28;20040;-89
2022/09/30 01:21:08;;;;;;;5.82;2.22;;;;;;;;;;5003770;28;20454;-90
2022/09/30 01:23:34;;;;;;;3.25;1.85;;;;;;;;;;5035150;28;20037;-89
2022/09/30 01:26:19;;;;;;;5.80;2.15;;;;;;;;;;5035459;28;20033;-90
2022/09/30 01:29:04;;;;;;;4.40;2.10;;;;;;;;;;5001201;28;20022;-90
2022/09/30 01:31:53;;;;;;;3.13;2.00;;;;;;;;;;5002957;28;20032;-90
2022/09/30 01:34:27;;;;;;;3.83;2.00;;;;;;;;;;5002640;28;20036;-90
2022/09/30 01:37:06;;;;;;;3.67;1.85;;;;;;;;;;5033343;28;20026;-91
2022/09/30 01:39:35;;;;;;;2.72;2.28;;;;;;;;;;5000712;28;20104;-90
2022/09/30 01:42:20;;;;;;;5.40;2.17;;;;;;;;;;5036216;28;20025;-90
2022/09/30 01:44:49;;;;;;;3.00;2.03;;;;;;;;;;5004803;28;20038;-89
2022/09/30 01:47:16;;;;;;;5.03;2.20;;;;;;;;;;4999245;28;20517;-89
2022/09/30 01:49:50;;;;;;;2.35;2.00;;;;;;;;;;5003816;28;20052;-90
2022/09/30 01:52:27;;;;;;;6.88;2.40;;;;;;;;;;5001380;28;20099;-90
2022/09/30 01:55:06;;;;;;;3.92;2.15;;;;;;;;;;5035789;28;20050;-90
2022/09/30 01:57:46;;;;;;;2.70;1.88;;;;;;;;;;5002127;28;20022;-89
2022/09/30 02:00:12;;;;;;;4.43;2.38;;;;;;;;;;4998604;28;20080;-90
2022/09/30 02:02:43;;;;;;;6.60;2.00;;;;;;;;;;4999884;28;20105;-90
2022/09/30 02:05:12;;;;;;;3.30;2.30;;;;;;;;;;5035695;28;20050;-89
2022/09/30 02:07:40;;;;;;;5.63;1.90;;;;;;;;;;5002254;28;20152;-89
2022/09/30 02:10:10;;;;;;;5.20;2.47;;;;;;;;;;5005121;28;20121;-89
2022/09/30 02:12:38;;;;;;;3.15;2.20;;;;;;;;;;5034135;28;20057;-89
2022/09/30 02:15:08;;;;;;;4.60;2.42;;;;;;;;;;5034942;28;20335;-89
2022/09/30 02:17:42;;;;;;;8.05;2.17;;;;;;;;;;5034951;28;20053;-88
2022/09/30 02:20:28;;;;;;;3.95;1.95;;;;;;;;;;5029922;28;20037;-88
2022/09/30 02:22:57;;;;;;;4.53;2.15;;;;;;;;;;5002963;28;20100;-86
2022/09/30 02:25:26;;;;;;;5.10;2.15;;;;;;;;;;5003358;28;20147;-88
2022/09/30 02:27:55;;;;;;;3.65;2.22;;;;;;;;;;4999170;28;20097;-88
2022/09/30 02:30:21;;;;;;;3.85;1.90;;;;;;;;;;5000487;28;20019;-89
2022/09/30 02:32:53;;;;;;;5.18;2.30;;;;;;;;;;4996708;28;20105;-88
2022/09/30 02:35:22;;;;;;;3.42;1.90;;;;;;;;;;5034088;28;20242;-88
2022/09/30 02:37:50;;;;;;;2.90;1.90;;;;;;;;;;5035221;28;20332;-89
2022/09/30 02:40:23;;;;;;;4.07;1.83;;;;;;;;;;5003583;28;20022;-89
2022/09/30 02:42:49;;;;;;;5.07;2.17;;;;;;;;;;5029590;28;20026;-88
2022/09/30 02:45:17;;;;;;;4.22;2.10;;;;;;;;;;5005186;28;20370;-88
2022/09/30 02:48:04;;;;;;;4.18;2.10;;;;;;;;;;5029171;28;20553;-89
2022/09/30 02:50:46;;;;;;;4.13;2.50;;;;;;;;;;5003918;28;20056;-89
2022/09/30 02:53:22;;;;;;;3.70;2.40;;;;;;;;;;5022298;28;20025;-88
2022/09/30 02:55:48;;;;;;;5.50;2.90;;;;;;;;;;5004728;28;20041;-88
2022/09/30 02:58:20;;;;;;;4.50;2.30;;;;;;;;;;5003980;28;20499;-89
2022/09/30 03:00:47;;;;;;;4.43;2.72;;;;;;;;;;5027967;28;20044;-89
2022/09/30 03:03:25;;;;;;;3.17;2.30;;;;;;;;;;5005594;28;20022;-89
2022/09/30 03:05:51;;;;;;;3.45;2.75;;;;;;;;;;5004473;28;20116;-87
2022/09/30 03:08:17;;;;;;;6.90;2.50;;;;;;;;;;5001075;28;20026;-88
2022/09/30 03:10:44;;;;;;;5.22;2.35;;;;;;;;;;5002011;28;20024;-88
2022/09/30 03:13:16;;;;;;;3.38;2.17;;;;;;;;;;4997443;28;20030;-88
2022/09/30 03:15:58;;;;;;;3.35;2.47;;;;;;;;;;5002397;28;20037;-88
2022/09/30 03:18:24;;;;;;;5.07;2.05;;;;;;;;;;5003586;28;20054;-88
2022/09/30 03:20:59;;;;;;;5.00;2.20;;;;;;;;;;4985503;28;20042;-88
2022/09/30 03:23:33;;;;;;;3.78;2.20;;;;;;;;;;5006498;28;20026;-88
2022/09/30 03:26:16;;;;;;;6.15;2.30;;;;;;;;;;4998606;28;20169;-88
2022/09/30 03:28:50;;;;;;;4.18;2.30;;;;;;;;;;4998478;28;20029;-89
2022/09/30 03:31:46;;;;;;;6.47;2.45;;;;;;;;;;5003567;28;20038;-89
2022/09/30 03:34:14;;;;;;;3.08;2.30;;;;;;;;;;4985349;28;20042;-89
2022/09/30 03:36:43;;;;;;;7.72;2.78;;;;;;;;;;5007547;28;20073;-89
2022/09/30 03:39:18;;;;;;;4.10;2.25;;;;;;;;;;5001372;28;20029;-89
2022/09/30 03:41:48;;;;;;;5.60;2.83;;;;;;;;;;5001861;28;20492;-89
2022/09/30 03:44:19;;;;;;;4.07;2.50;;;;;;;;;;5003812;28;20026;-89
2022/09/30 03:46:48;;;;;;;5.82;2.70;;;;;;;;;;5007349;28;20058;-88
2022/09/30 03:49:18;;;;;;;4.63;2.42;;;;;;;;;;5002891;28;20040;-88
2022/09/30 03:51:45;;;;;;;7.22;2.42;;;;;;;;;;5022779;28;20033;-89
2022/09/30 03:54:13;;;;;;;6.97;2.75;;;;;;;;;;5021582;28;20477;-89
2022/09/30 03:56:43;;;;;;;3.42;2.58;;;;;;;;;;5005963;28;20451;-88
2022/09/30 03:59:11;;;;;;;3.63;2.40;;;;;;;;;;5024770;28;20036;-88
2022/09/30 04:01:38;;;;;;;4.32;2.58;;;;;;;;;;5006639;28;20024;-89
2022/09/30 04:04:05;;;;;;;5.38;2.70;;;;;;;;;;5028303;28;20030;-88
2022/09/30 04:06:31;;;;;;;4.53;2.70;;;;;;;;;;5007842;28;20029;-88
2022/09/30 04:08:57;;;;;;;5.57;2.45;;;;;;;;;;5006040;28;20033;-88
2022/09/30 04:11:23;;;;;;;5.18;2.67;;;;;;;;;;5024564;28;20295;-88
2022/09/30 04:13:49;;;;;;;3.92;2.40;;;;;;;;;;5018846;28;20059;-87
2022/09/30 04:16:16;;;;;;;6.35;2.60;;;;;;;;;;5006102;28;20065;-88
2022/09/30 04:18:42;;;;;;;4.75;2.75;;;;;;;;;;5006789;28;20141;-89
2022/09/30 04:21:09;;;;;;;4.70;2.40;;;;;;;;;;5019128;28;20221;-88
2022/09/30 04:23:36;;;;;;;4.30;2.85;;;;;;;;;;5010367;28;20036;-90
2022/09/30 04:26:02;;;;;;;5.70;2.60;;;;;;;;;;5003993;28;20046;-89
2022/09/30 04:28:28;;;;;;;3.65;2.38;;;;;;;;;;5023453;28;20026;-88
2022/09/30 04:30:54;;;;;;;3.75;1.90;;;;;;;;;;5023708;28;20066;-90
2022/09/30 04:33:20;;;;;;;3.63;2.22;;;;;;;;;;5002051;28;20033;-90
2022/09/30 04:35:47;;;;;;;2.97;2.20;;;;;;;;;;5008738;28;20099;-89
2022/09/30 04:38:13;;;;;;;4.90;2.70;;;;;;;;;;5006241;28;20195;-89
2022/09/30 04:40:39;;;;;;;4.53;1.90;;;;;;;;;;5006587;28;20026;-89
2022/09/30 04:43:05;;;;;;;4.43;2.13;;;;;;;;;;5022739;28;20136;-88
2022/09/30 04:45:32;;;;;;;3.63;2.35;;;;;;;;;;5020869;28;20109;-88
2022/09/30 04:47:58;;;;;;;3.10;2.13;;;;;;;;;;5005608;28;20281;-90
2022/09/30 04:50:24;;;;;;;4.10;2.30;;;;;;;;;;5021337;28;20320;-89
2022/09/30 04:52:50;;;;;;;3.42;2.10;;;;;;;;;;5023382;28;20033;-90
2022/09/30 04:55:16;;;;;;;4.57;2.20;;;;;;;;;;5022611;28;20033;-90
2022/09/30 04:57:46;;;;;;;3.80;1.80;;;;;;;;;;5006367;28;20027;-90
2022/09/30 05:00:12;;;;;;;3.92;2.20;;;;;;;;;;5026198;28;20052;-89
2022/09/30 05:02:38;;;;;;;4.07;2.80;;;;;;;;;;5023832;28;20549;-90
2022/09/30 05:05:05;;;;;;;5.90;3.30;;;;;;;;;;5023963;28;20029;-89
2022/09/30 05:07:31;;;;;;;6.35;3.05;;;;;;;;;;5004324;28;20040;-89
2022/09/30 05:09:57;;;;;;;6.68;3.78;;;;;;;;;;5023167;28;20025;-89
2022/09/30 05:12:25;;;;;;;7.95;4.35;;;;;;;;;;5022061;28;20105;-89
2022/09/30 05:14:51;;;;;;;4.55;2.83;;;;;;;;;;5007186;28;20037;-90
2022/09/30 05:17:17;;;;;;;2.85;1.80;;;;;;;;;;5001981;28;20705;-88
2022/09/30 05:19:43;;;;;;;2.90;2.10;;;;;;;;;;5018649;28;20104;-88
2022/09/30 05:22:09;;;;;;;4.97;2.00;;;;;;;;;;5019830;28;20028;-88
2022/09/30 05:24:35;;;;;;;3.65;2.40;;;;;;;;;;5003517;28;20022;-89
2022/09/30 05:27:01;;;;;;;3.88;2.45;;;;;;;;;;5019479;28;20021;-89
2022/09/30 05:29:28;;;;;;;5.85;2.72;;;;;;;;;;5007474;28;20033;-92
2022/09/30 05:31:54;;;;;;;5.10;2.47;;;;;;;;;;5017949;28;20072;-88
2022/09/30 05:34:21;;;;;;;4.50;2.55;;;;;;;;;;5022272;28;20029;-90
2022/09/30 05:36:47;;;;;;;5.25;3.13;;;;;;;;;;5022384;28;20029;-89
2022/09/30 05:39:14;;;;;;;4.13;2.20;;;;;;;;;;5003156;28;20074;-89
2022/09/30 05:41:40;;;;;;;5.03;3.10;;;;;;;;;;5022415;28;20257;-90
2022/09/30 05:44:08;;;;;;;3.97;3.35;;;;;;;;;;5024014;28;20292;-90
2022/09/30 05:46:34;;;;;;;6.00;3.60;;;;;;;;;;5021116;28;20079;-90
2022/09/30 05:49:00;;;;;;;6.53;4.22;;;;;;;;;;5020755;28;20103;-91
2022/09/30 05:51:26;;;;;;;5.95;4.03;;;;;;;;;;5002958;28;20052;-90
2022/09/30 05:53:53;;;;;;;6.60;3.88;;;;;;;;;;5019073;28;20051;-94
2022/09/30 05:56:19;;;;;;;6.13;4.32;;;;;;;;;;5013183;28;20508;-92
2022/09/30 05:58:46;;;;;;;13.07;5.90;;;;;;;;;;5022385;28;20080;-92
2022/09/30 06:01:14;;;;;;;8.27;4.15;;;;;;;;;;5028048;28;20335;-93
2022/09/30 06:03:40;;;;;;;3.72;2.70;;;;;;;;;;5001867;28;20174;-93
2022/09/30 06:06:07;;;;;;;4.65;2.53;;;;;;;;;;5020573;28;20061;-92
2022/09/30 06:08:33;;;;;;;5.18;2.00;;;;;;;;;;5021071;28;20483;-92
2022/09/30 06:10:59;;;;;;;3.22;2.13;;;;;;;;;;5022388;28;20091;-92
2022/09/30 06:13:26;;;;;;;4.00;2.22;;;;;;;;;;5001737;28;20107;-93
2022/09/30 06:15:56;;;;;;;3.13;2.10;;;;;;;;;;5005040;28;20041;-94
2022/09/30 06:18:22;;;;;;;3.80;1.95;;;;;;;;;;5004718;28;20087;-93
2022/09/30 06:20:53;;;;;;;6.65;2.10;;;;;;;;;;5005138;28;20025;-92
2022/09/30 06:23:19;;;;;;;2.92;1.83;;;;;;;;;;5022117;28;20033;-92
2022/09/30 06:25:45;;;;;;;5.05;2.47;;;;;;;;;;5021082;28;20024;-91
2022/09/30 06:28:12;;;;;;;3.25;1.77;;;;;;;;;;5020093;28;20025;-92
2022/09/30 06:30:47;;;;;;;3.20;2.00;;;;;;;;;;4990152;28;20049;-91
2022/09/30 06:33:14;;;;;;;4.57;2.17;;;;;;;;;;5021220;28;20028;-92
2022/09/30 06:35:41;;;;;;;2.58;1.83;;;;;;;;;;5001102;28;20064;-91
2022/09/30 06:38:17;;;;;;;3.47;2.00;;;;;;;;;;5004446;28;20627;-92
2022/09/30 06:40:48;;;;;;;4.85;2.10;;;;;;;;;;5016642;28;20174;-91
2022/09/30 06:43:15;;;;;;;4.03;1.90;;;;;;;;;;4998190;28;20434;-92
2022/09/30 06:45:42;;;;;;;3.90;1.70;;;;;;;;;;5018120;28;20103;-94
2022/09/30 06:48:09;;;;;;;2.72;1.83;;;;;;;;;;5020986;28;20038;-89
2022/09/30 06:50:37;;;;;;;6.80;2.00;;;;;;;;;;5005860;28;20502;-90
2022/09/30 06:53:07;;;;;;;6.60;1.80;;;;;;;;;;5001303;28;20034;-93
2022/09/30 06:55:35;;;;;;;5.65;2.10;;;;;;;;;;4986234;28;20133;-89
2022/09/30 06:58:01;;;;;;;3.92;1.88;;;;;;;;;;5003295;28;20374;-88
2022/09/30 07:00:27;;;;;;;3.83;2.40;;;;;;;;;;4997765;28;20026;-87
2022/09/30 07:02:57;;;;;;;3.03;2.05;;;;;;;;;;4982373;28;20049;-91
2022/09/30 07:05:26;;;;;;;3.20;1.88;;;;;;;;;;5000847;28;20041;-88
2022/09/30 07:07:53;;;;;;;4.80;2.08;;;;;;;;;;4985680;28;20030;-91
2022/09/30 07:10:20;;;;;;;6.13;2.15;;;;;;;;;;5003122;28;20040;-90
2022/09/30 07:12:53;;;;;;;5.38;1.92;;;;;;;;;;4998423;28;20079;-90
2022/09/30 07:15:22;;;;;;;3.78;1.80;;;;;;;;;;5001736;28;20481;-91
2022/09/30 07:17:52;;;;;;;3.65;1.80;;;;;;;;;;5003401;28;20080;-91
2022/09/30 07:20:19;;;;;;;4.57;2.00;;;;;;;;;;5011259;28;20029;-88
2022/09/30 07:22:46;;;;;;;5.30;1.85;;;;;;;;;;4991236;28;20044;-89
2022/09/30 07:25:13;;;;;;;4.13;1.95;;;;;;;;;;5006384;28;20030;-89
2022/09/30 07:27:40;;;;;;;3.10;1.83;;;;;;;;;;5008280;28;20029;-89
2022/09/30 07:30:06;;;;;;;4.78;1.92;;;;;;;;;;5011031;28;20037;-90
2022/09/30 07:32:33;;;;;;;2.22;1.63;;;;;;;;;;5010390;28;20105;-91
2022/09/30 07:34:59;;;;;;;3.13;1.80;;;;;;;;;;5010081;28;20034;-91
2022/09/30 07:37:25;;;;;;;5.30;1.90;;;;;;;;;;5008251;28;20029;-89
2022/09/30 07:39:53;;;;;;;5.07;2.05;;;;;;;;;;5009820;28;20125;-89
2022/09/30 07:42:22;;;;;;;5.82;1.70;;;;;;;;;;5019458;28;20019;-90
2022/09/30 07:44:50;;;;;;;4.75;1.92;;;;;;;;;;5006952;28;20018;-93
2022/09/30 07:47:17;;;;;;;3.25;1.85;;;;;;;;;;4992021;28;20508;-92
2022/09/30 07:49:43;;;;;;;3.85;1.95;;;;;;;;;;5007240;28;20048;-89
2022/09/30 07:52:11;;;;;;;2.60;1.70;;;;;;;;;;5006581;28;20408;-90
2022/09/30 07:54:37;;;;;;;4.32;1.88;;;;;;;;;;5007497;28;20081;-89
2022/09/30 07:57:04;;;;;;;2.03;1.40;;;;;;;;;;5038787;28;20014;-88
2022/09/30 07:59:31;;;;;;;4.57;1.80;;;;;;;;;;5005498;28;20144;-89
2022/09/30 08:01:57;;;;;;;2.92;1.77;;;;;;;;;;5005829;28;20037;-89
2022/09/30 08:04:24;;;;;;;4.65;1.80;;;;;;;;;;5007057;28;20026;-90
2022/09/30 08:06:52;;;;;;;3.45;1.48;;;;;;;;;;5005633;28;20042;-89
2022/09/30 08:09:20;;;;;;;4.38;2.00;;;;;;;;;;5037239;28;20048;-93
2022/09/30 08:11:47;;;;;;;2.97;1.38;;;;;;;;;;5037313;28;20029;-93
2022/09/30 08:14:17;;;;;;;2.65;1.55;;;;;;;;;;5023278;28;20022;-93
2022/09/30 08:16:43;;;;;;;3.33;1.55;;;;;;;;;;5007170;28;20596;-94
2022/09/30 08:19:13;;;;;;;2.03;1.15;;;;;;;;;;5004743;28;20018;-94
2022/09/30 08:21:39;;;;;;;4.15;1.70;;;;;;;;;;5003921;28;20032;-93
2022/09/30 08:24:05;;;;;;;3.00;1.38;;;;;;;;;;5006425;28;20032;-93
2022/09/30 08:26:32;;;;;;;2.75;1.30;;;;;;;;;;5037370;28;20026;-95
2022/09/30 08:28:58;;;;;;;3.53;1.50;;;;;;;;;;4986915;28;20492;-92
2022/09/30 08:31:25;;;;;;;4.32;1.33;;;;;;;;;;5035293;28;20033;-93
2022/09/30 08:33:51;;;;;;;3.28;1.60;;;;;;;;;;5005138;28;20030;-94
2022/09/30 08:36:21;;;;;;;4.03;1.95;;;;;;;;;;5004058;28;20088;-95
2022/09/30 08:38:48;;;;;;;2.47;1.40;;;;;;;;;;5006022;28;20049;-94
2022/09/30 08:41:23;;;;;;;4.15;1.30;;;;;;;;;;5002345;28;20034;-94
2022/09/30 08:44:08;;;;;;;3.97;1.65;;;;;;;;;;5031781;28;20060;-94
2022/09/30 08:46:48;;;;;;;2.63;1.40;;;;;;;;;;5034932;28;20060;-95
2022/09/30 08:49:23;;;;;;;3.45;1.70;;;;;;;;;;5003642;28;20044;-91
2022/09/30 08:51:50;;;;;;;2.65;1.50;;;;;;;;;;5002915;28;20090;-93
2022/09/30 08:54:17;;;;;;;3.15;1.70;;;;;;;;;;5003455;28;20423;-93
2022/09/30 08:56:44;;;;;;;4.63;2.05;;;;;;;;;;5004046;28;20624;-93
2022/09/30 08:59:29;;;;;;;3.28;1.50;;;;;;;;;;5003760;28;20065;-93
2022/09/30 09:02:01;;;;;;;4.82;1.80;;;;;;;;;;5002179;28;20567;-93
2022/09/30 09:04:28;;;;;;;3.08;1.90;;;;;;;;;;5004478;28;20030;-93
2022/09/30 09:06:58;;;;;;;3.08;1.73;;;;;;;;;;5035780;28;20344;-92
2022/09/30 09:09:28;;;;;;;3.95;1.70;;;;;;;;;;5033701;28;20362;-93
2022/09/30 09:12:01;;;;;;;3.90;1.75;;;;;;;;;;5037571;28;20038;-93
2022/09/30 09:14:34;;;;;;;3.08;1.60;;;;;;;;;;5036150;28;20033;-93
2022/09/30 09:17:05;;;;;;;3.10;1.98;;;;;;;;;;5004584;28;20038;-92
2022/09/30 09:19:42;;;;;;;3.80;2.05;;;;;;;;;;5004974;28;20567;-92
2022/09/30 09:22:09;;;;;;;2.03;1.80;;;;;;;;;;5004104;28;20028;-93
2022/09/30 09:24:44;;;;;;;5.38;1.73;;;;;;;;;;5004341;28;20021;-93
2022/09/30 09:27:31;;;;;;;6.35;1.83;;;;;;;;;;5004886;28;20022;-93
2022/09/30 09:29:57;;;;;;;5.32;1.67;;;;;;;;;;4994895;28;20136;-93
2022/09/30 09:32:26;;;;;;;2.88;1.73;;;;;;;;;;5004468;28;20030;-94
2022/09/30 09:34:58;;;;;;;3.33;1.45;;;;;;;;;;5006001;28;20057;-93
2022/09/30 09:40:55;;;;;;;3.60;1.77;;;;;;;;;;4998305;28;20035;-92
2022/09/30 09:43:42;;;;;;;5.65;1.75;;;;;;;;;;4998771;28;20030;-92
2022/09/30 09:46:08;;;;;;;4.50;1.50;;;;;;;;;;5037741;28;20085;-92
2022/09/30 09:48:36;;;;;;;4.15;1.50;;;;;;;;;;5000637;28;20262;-94
2022/09/30 09:51:08;;;;;;;3.15;1.90;;;;;;;;;;5006056;28;20112;-93
2022/09/30 09:53:44;;;;;;;5.60;1.95;;;;;;;;;;5005594;28;20056;-93
2022/09/30 09:56:17;;;;;;;4.68;1.73;;;;;;;;;;5022234;28;20101;-93
2022/09/30 09:59:03;;;;;;;4.35;2.00;;;;;;;;;;5006608;28;20018;-92
2022/09/30 10:01:33;;;;;;;3.95;2.05;;;;;;;;;;5006225;28;20018;-92
2022/09/30 10:04:20;;;;;;;7.13;1.93;;;;;;;;;;5004827;28;20500;-91
2022/09/30 10:06:46;;;;;;;3.88;1.83;;;;;;;;;;5002924;28;20030;-92
2022/09/30 10:09:23;;;;;;;7.47;2.10;;;;;;;;;;5004648;28;20030;-91
2022/09/30 10:11:49;;;;;;;5.63;2.20;;;;;;;;;;5033181;28;20511;-91
2022/09/30 10:14:18;;;;;;;4.53;1.90;;;;;;;;;;5005328;28;20018;-92
2022/09/30 10:16:44;;;;;;;3.40;1.90;;;;;;;;;;5005352;28;20542;-91
2022/09/30 10:19:19;;;;;;;4.90;1.92;;;;;;;;;;5005779;28;20041;-91
2022/09/30 10:21:45;;;;;;;7.38;1.90;;;;;;;;;;5004729;28;20105;-92
2022/09/30 10:24:19;;;;;;;2.90;1.73;;;;;;;;;;5002841;28;20030;-93
2022/09/30 10:26:46;;;;;;;6.53;2.58;;;;;;;;;;5032919;28;20290;-93
2022/09/30 10:29:44;;;;;;;4.22;1.98;;;;;;;;;;5005545;28;20096;-92
2022/09/30 10:32:12;;;;;;;4.00;2.08;;;;;;;;;;4957512;28;20042;-92
2022/09/30 10:34:40;;;;;;;5.00;2.00;;;;;;;;;;4997233;28;20321;-85
2022/09/30 10:37:27;;;;;;;4.50;1.85;;;;;;;;;;4999747;28;20504;-86
2022/09/30 10:40:00;;;;;;;6.15;1.80;;;;;;;;;;4997797;28;20040;-86
2022/09/30 10:42:27;;;;;;;4.03;1.90;;;;;;;;;;5028422;28;20660;-87
2022/09/30 10:44:53;;;;;;;5.32;2.00;;;;;;;;;;5031784;28;20112;-85
2022/09/30 10:47:21;;;;;;;5.78;1.77;;;;;;;;;;5001937;28;20037;-85
2022/09/30 10:49:47;;;;;;;3.15;2.03;;;;;;;;;;4998266;28;20269;-88
2022/09/30 10:52:43;;;;;;;2.78;1.83;;;;;;;;;;5001540;28;20105;-85
2022/09/30 10:55:29;;;;;;;7.40;2.28;;;;;;;;;;4997459;28;20085;-87
2022/09/30 10:57:57;;;;;;;3.55;1.80;;;;;;;;;;5000158;28;20026;-88
2022/09/30 11:00:26;;;;;;;4.90;1.80;;;;;;;;;;5002992;28;20026;-92
2022/09/30 11:03:02;;;;;;;4.85;2.00;;;;;;;;;;5002640;28;20033;-94
2022/09/30 11:05:30;;;;;;;3.75;2.03;;;;;;;;;;5035349;28;20034;-91
2022/09/30 11:07:56;;;;;;;4.80;2.03;;;;;;;;;;5037059;28;20276;-90
2022/09/30 11:10:25;;;;;;;3.90;2.20;;;;;;;;;;5003087;28;20105;-89
2022/09/30 11:12:54;;;;;;;3.90;2.10;;;;;;;;;;5004339;28;20037;-89
2022/09/30 11:15:28;;;;;;;5.85;2.38;;;;;;;;;;5031349;28;20307;-88
2022/09/30 11:18:00;;;;;;;5.57;2.22;;;;;;;;;;5029818;28;20036;-89
2022/09/30 11:20:29;;;;;;;6.13;2.78;;;;;;;;;;5000781;28;20026;-89
2022/09/30 11:23:02;;;;;;;5.25;2.25;;;;;;;;;;4998411;28;20031;-89
2022/09/30 11:26:03;;;;;;;6.32;2.40;;;;;;;;;;5001385;28;20810;-88
2022/09/30 11:28:48;;;;;;;7.38;2.40;;;;;;;;;;4962701;28;20049;-88
2022/09/30 11:31:17;;;;;;;4.50;2.28;;;;;;;;;;4996081;28;20045;-88
2022/09/30 11:33:44;;;;;;;5.22;2.47;;;;;;;;;;4996064;28;20056;-88
2022/09/30 11:36:13;;;;;;;5.75;2.47;;;;;;;;;;5000119;28;20030;-87
2022/09/30 11:38:43;;;;;;;4.40;2.20;;;;;;;;;;5026966;28;20222;-89
2022/09/30 11:41:14;;;;;;;6.53;2.65;;;;;;;;;;5032545;28;20309;-89
2022/09/30 11:43:40;;;;;;;;;;;;;;;;;;5001586;28;20082;-89
2022/09/30 11:46:06;;;;;;;3.40;2.10;;;;;;;;;;5009114;28;20466;-88
2022/09/30 11:48:55;;;;;;;4.57;2.40;;;;;;;;;;4994388;28;20071;-89
2022/09/30 11:51:41;;;;;;;4.07;2.40;;;;;;;;;;4993491;28;20500;-88
2022/09/30 11:54:26;;;;;;;5.30;2.83;;;;;;;;;;5024074;28;20029;-88
2022/09/30 11:57:13;;;;;;;8.90;2.72;;;;;;;;;;5025294;28;20045;-89
2022/09/30 11:59:39;;;;;;;4.22;2.05;;;;;;;;;;4967160;28;20279;-88
2022/09/30 12:02:14;;;;;;;4.60;2.03;;;;;;;;;;4998720;28;20041;-88
2022/09/30 12:04:43;;;;;;;5.90;2.40;;;;;;;;;;4995919;28;20030;-87
2022/09/30 12:07:13;;;;;;;4.90;2.90;;;;;;;;;;5032636;28;20096;-87
2022/09/30 12:09:54;;;;;;;7.00;2.53;;;;;;;;;;5001464;28;20030;-87
2022/09/30 12:12:21;;;;;;;5.72;2.70;;;;;;;;;;5000015;28;20040;-88
2022/09/30 12:15:01;;;;;;;9.20;2.95;;;;;;;;;;4996787;28;20026;-89
2022/09/30 12:17:39;;;;;;;5.72;2.97;;;;;;;;;;5034550;28;20047;-91
2022/09/30 12:20:15;;;;;;;4.72;3.15;;;;;;;;;;5003396;28;20034;-91
2022/09/30 12:22:51;;;;;;;8.60;3.03;;;;;;;;;;5000924;28;20042;-92
2022/09/30 12:25:32;;;;;;;5.80;2.42;;;;;;;;;;5035583;28;20030;-92
2022/09/30 12:27:58;;;;;;;4.97;2.30;;;;;;;;;;5030617;28;20405;-91
2022/09/30 12:30:24;;;;;;;6.50;2.70;;;;;;;;;;5034977;28;20117;-92
2022/09/30 12:33:04;;;;;;;3.97;2.60;;;;;;;;;;5034811;28;20045;-92
2022/09/30 12:35:33;;;;;;;6.43;2.60;;;;;;;;;;5003875;28;20050;-92
2022/09/30 12:38:12;;;;;;;5.65;2.40;;;;;;;;;;5001011;28;20089;-90
2022/09/30 12:40:41;;;;;;;5.13;2.78;;;;;;;;;;5032334;28;20521;-92
2022/09/30 12:43:16;;;;;;;6.50;2.35;;;;;;;;;;5002759;28;20018;-91
2022/09/30 12:45:53;;;;;;;3.40;2.13;;;;;;;;;;5030174;28;20025;-92
2022/09/30 12:48:20;;;;;;;4.82;2.45;;;;;;;;;;5002260;28;20511;-92
2022/09/30 12:50:52;;;;;;;5.00;2.40;;;;;;;;;;5021793;28;20054;-92
2022/09/30 12:53:29;;;;;;;2.65;2.35;;;;;;;;;;5006557;28;20183;-92
2022/09/30 12:56:02;;;;;;;4.30;2.40;;;;;;;;;;5023964;28;20159;-91
2022/09/30 12:58:31;;;;;;;5.07;2.75;;;;;;;;;;5019741;28;20021;-92
2022/09/30 13:01:04;;;;;;;4.50;2.40;;;;;;;;;;5022191;28;20112;-93
2022/09/30 13:03:43;;;;;;;9.90;3.33;;;;;;;;;;5024574;28;20021;-91
2022/09/30 13:06:09;;;;;;;5.15;2.42;;;;;;;;;;5005242;28;20033;-89
2022/09/30 13:08:54;;;;;;;8.07;2.75;;;;;;;;;;5021376;28;20033;-92
2022/09/30 13:11:32;;;;;;;5.63;2.70;;;;;;;;;;5021246;28;20078;-91
2022/09/30 13:14:03;;;;;;;7.65;3.03;;;;;;;;;;5029484;28;20029;-93
2022/09/30 13:16:47;;;;;;;8.40;2.97;;;;;;;;;;5018859;28;20072;-92
2022/09/30 13:19:31;;;;;;;5.20;2.33;;;;;;;;;;5021537;28;20037;-93
2022/09/30 13:22:16;;;;;;;7.75;3.05;;;;;;;;;;5024205;28;20025;-92
2022/09/30 13:25:02;;;;;;;5.85;3.00;;;;;;;;;;5007161;28;20624;-92
2022/09/30 13:27:36;;;;;;;5.70;2.83;;;;;;;;;;5004304;28;20415;-92
2022/09/30 13:30:25;;;;;;;7.85;2.90;;;;;;;;;;5022325;28;20365;-93
2022/09/30 13:32:56;;;;;;;17.35;3.42;;;;;;;;;;5003699;28;20034;-92
2022/09/30 13:35:36;;;;;;;18.63;3.80;;;;;;;;;;5021248;28;20037;-93
2022/09/30 13:38:14;;;;;;;7.50;3.28;;;;;;;;;;5023159;28;20472;-93
2022/09/30 13:40:43;;;;;;;8.63;3.17;;;;;;;;;;5005501;28;20791;-92
2022/09/30 13:43:13;;;;;;;5.95;2.95;;;;;;;;;;5022328;28;20107;-91
2022/09/30 13:45:45;;;;;;;7.57;2.92;;;;;;;;;;5021979;28;20021;-92
2022/09/30 13:48:11;;;;;;;8.20;3.13;;;;;;;;;;5023239;28;20029;-92
2022/09/30 13:50:45;;;;;;;5.75;2.65;;;;;;;;;;5022926;28;20049;-92
2022/09/30 13:53:16;;;;;;;7.38;3.03;;;;;;;;;;5003392;28;20025;-92
2022/09/30 13:55:45;;;;;;;;;;;;;;;;;;5018735;28;20068;-92
2022/09/30 13:58:22;;;;;;;5.43;2.92;;;;;;;;;;5023096;28;19909;-91
2022/09/30 14:00:53;;;;;;;8.00;2.85;;;;;;;;;;5021444;28;20022;-90
2022/09/30 14:03:37;;;;;;;7.18;3.42;;;;;;;;;;5008812;28;20039;-92
2022/09/30 14:06:08;;;;;;;8.50;3.05;;;;;;;;;;5038731;28;20025;-91
2022/09/30 14:08:35;;;;;;;10.27;4.45;;;;;;;;;;5028020;28;20020;-91
2022/09/30 14:11:01;;;;;;;7.82;3.40;;;;;;;;;;5022075;28;20037;-92
2022/09/30 14:13:37;;;;;;;9.57;3.15;;;;;;;;;;5004935;28;20029;-92
2022/09/30 14:16:18;;;;;;;5.90;3.20;;;;;;;;;;5020454;28;20706;-92
2022/09/30 14:18:52;;;;;;;11.52;3.50;;;;;;;;;;5023360;28;20404;-92
2022/09/30 14:21:34;;;;;;;4.93;2.70;;;;;;;;;;5018978;28;20030;-91
2022/09/30 14:24:16;;;;;;;7.28;2.97;;;;;;;;;;5018460;28;20646;-92
2022/09/30 14:26:55;;;;;;;6.10;2.72;;;;;;;;;;5005172;28;20030;-92
2022/09/30 14:29:27;;;;;;;10.25;3.22;;;;;;;;;;4998539;28;20037;-92
2022/09/30 14:31:54;;;;;;;8.50;3.10;;;;;;;;;;5015927;28;20040;-91
2022/09/30 14:34:21;;;;;;;6.82;3.05;;;;;;;;;;5024184;28;20351;-92
2022/09/30 14:36:51;;;;;;;5.40;2.85;;;;;;;;;;5020944;28;20041;-92
2022/09/30 14:39:19;;;;;;;7.05;3.05;;;;;;;;;;5006299;28;20025;-92
2022/09/30 14:41:54;;;;;;;12.95;3.35;;;;;;;;;;5018515;28;20065;-91
2022/09/30 14:44:21;;;;;;;9.35;3.83;;;;;;;;;;5019227;28;20025;-91
2022/09/30 14:46:49;;;;;;;10.13;3.72;;;;;;;;;;5014093;22;20033;-80
2022/09/30 14:49:17;;;;;;;7.88;3.40;;;;;;;;;;5040793;28;20033;-77
2022/09/30 14:51:48;;;;;;;6.57;3.03;;;;;;;;;;5057577;28;20031;-77
2022/09/30 14:54:25;;;;;;;12.10;3.27;;;;;;;;;;5058727;28;20021;-77
2022/09/30 14:56:55;;;;;;;6.72;3.20;;;;;;;;;;5053838;28;20111;-77
2022/09/30 14:59:25;;;;;;;12.30;4.05;;;;;;;;;;5041564;28;20024;-77
2022/09/30 15:01:54;;;;;;;11.88;4.28;;;;;;;;;;5055335;28;20107;-76
2022/09/30 15:04:30;;;;;;;10.60;3.58;;;;;;;;;;5058410;28;20519;-77
2022/09/30 15:06:59;;;;;;;8.82;3.70;;;;;;;;;;5058569;28;20182;-77
2022/09/30 15:09:36;;;;;;;9.02;3.08;;;;;;;;;;5056820;28;20472;-76